sensor_id;sensor_type;location;lat;lon;timestamp;P1;durP1;ratioP1;P2;durP2;ratioP2
52306;SDS011;38249;48.920;12.882;2022-12-29T00:01:55;3.13;;;2.42;;
52306;SDS011;38249;48.920;12.882;2022-12-29T00:04:22;2.60;;;2.30;;
52306;SDS011;38249;48.920;12.882;2022-12-29T00:06:49;2.38;;;2.17;;
52306;SDS011;38249;48.920;12.882;2022-12-29T00:09:16;4.30;;;2.70;;
52306;SDS011;38249;48.920;12.882;2022-12-29T00:11:43;4.03;;;2.47;;
52306;SDS011;38249;48.920;12.882;2022-12-29T00:14:09;2.88;;;2.30;;
52306;SDS011;38249;48.920;12.882;2022-12-29T00:16:54;2.67;;;2.08;;
52306;SDS011;38249;48.920;12.882;2022-12-29T00:19:20;2.67;;;2.38;;
52306;SDS011;38249;48.920;12.882;2022-12-29T00:22:08;2.65;;;2.13;;
52306;SDS011;38249;48.920;12.882;2022-12-29T00:24:53;4.38;;;2.63;;
52306;SDS011;38249;48.920;12.882;2022-12-29T00:27:37;2.33;;;2.10;;
52306;SDS011;38249;48.920;12.882;2022-12-29T00:30:21;6.20;;;2.28;;
52306;SDS011;38249;48.920;12.882;2022-12-29T00:33:08;2.60;;;2.10;;
52306;SDS011;38249;48.920;12.882;2022-12-29T00:35:54;3.05;;;1.90;;
52306;SDS011;38249;48.920;12.882;2022-12-29T00:38:25;3.22;;;1.95;;
52306;SDS011;38249;48.920;12.882;2022-12-29T00:41:10;2.85;;;2.15;;
52306;SDS011;38249;48.920;12.882;2022-12-29T00:43:54;2.22;;;2.03;;
52306;SDS011;38249;48.920;12.882;2022-12-29T00:46:35;3.15;;;2.17;;
52306;SDS011;38249;48.920;12.882;2022-12-29T00:49:03;2.28;;;1.95;;
52306;SDS011;38249;48.920;12.882;2022-12-29T00:51:47;4.50;;;2.20;;
52306;SDS011;38249;48.920;12.882;2022-12-29T00:54:15;5.95;;;3.88;;
52306;SDS011;38249;48.920;12.882;2022-12-29T00:56:42;5.35;;;3.65;;
52306;SDS011;38249;48.920;12.882;2022-12-29T00:59:09;2.85;;;2.22;;
52306;SDS011;38249;48.920;12.882;2022-12-29T01:01:36;3.25;;;2.08;;
52306;SDS011;38249;48.920;12.882;2022-12-29T01:04:04;3.15;;;2.05;;
52306;SDS011;38249;48.920;12.882;2022-12-29T01:06:31;2.08;;;1.85;;
52306;SDS011;38249;48.920;12.882;2022-12-29T01:08:58;2.90;;;2.17;;
52306;SDS011;38249;48.920;12.882;2022-12-29T01:11:43;2.57;;;2.37;;
52306;SDS011;38249;48.920;12.882;2022-12-29T01:14:09;3.95;;;2.55;;
52306;SDS011;38249;48.920;12.882;2022-12-29T01:16:36;3.47;;;2.00;;
52306;SDS011;38249;48.920;12.882;2022-12-29T01:19:02;3.03;;;2.40;;
52306;SDS011;38249;48.920;12.882;2022-12-29T01:21:29;2.88;;;1.90;;
52306;SDS011;38249;48.920;12.882;2022-12-29T01:23:55;2.15;;;2.00;;
52306;SDS011;38249;48.920;12.882;2022-12-29T01:26:22;2.22;;;1.83;;
52306;SDS011;38249;48.920;12.882;2022-12-29T01:28:50;2.28;;;2.08;;
52306;SDS011;38249;48.920;12.882;2022-12-29T01:31:17;2.53;;;1.95;;
52306;SDS011;38249;48.920;12.882;2022-12-29T01:33:43;2.45;;;2.05;;
52306;SDS011;38249;48.920;12.882;2022-12-29T01:36:10;2.40;;;1.95;;
52306;SDS011;38249;48.920;12.882;2022-12-29T01:38:38;4.82;;;2.10;;
52306;SDS011;38249;48.920;12.882;2022-12-29T01:41:06;3.35;;;1.80;;
52306;SDS011;38249;48.920;12.882;2022-12-29T01:43:38;2.60;;;2.20;;
52306;SDS011;38249;48.920;12.882;2022-12-29T01:46:08;2.20;;;2.00;;
52306;SDS011;38249;48.920;12.882;2022-12-29T01:48:44;3.30;;;1.77;;
52306;SDS011;38249;48.920;12.882;2022-12-29T01:51:12;3.63;;;2.33;;
52306;SDS011;38249;48.920;12.882;2022-12-29T01:53:39;1.98;;;1.77;;
52306;SDS011;38249;48.920;12.882;2022-12-29T01:56:06;1.85;;;1.60;;
52306;SDS011;38249;48.920;12.882;2022-12-29T01:58:39;1.83;;;1.73;;
52306;SDS011;38249;48.920;12.882;2022-12-29T02:01:12;3.30;;;1.65;;
52306;SDS011;38249;48.920;12.882;2022-12-29T02:03:39;2.90;;;1.83;;
52306;SDS011;38249;48.920;12.882;2022-12-29T02:06:07;2.63;;;2.33;;
52306;SDS011;38249;48.920;12.882;2022-12-29T02:08:37;2.10;;;1.90;;
52306;SDS011;38249;48.920;12.882;2022-12-29T02:11:05;2.60;;;1.80;;
52306;SDS011;38249;48.920;12.882;2022-12-29T02:13:32;2.60;;;2.40;;
52306;SDS011;38249;48.920;12.882;2022-12-29T02:16:01;2.88;;;2.67;;
52306;SDS011;38249;48.920;12.882;2022-12-29T02:18:47;3.45;;;2.17;;
52306;SDS011;38249;48.920;12.882;2022-12-29T02:27:40;2.80;;;2.55;;
52306;SDS011;38249;48.920;12.882;2022-12-29T02:33:14;2.88;;;1.70;;
52306;SDS011;38249;48.920;12.882;2022-12-29T02:35:51;2.17;;;2.00;;
52306;SDS011;38249;48.920;12.882;2022-12-29T02:38:25;1.95;;;1.80;;
52306;SDS011;38249;48.920;12.882;2022-12-29T02:41:07;1.85;;;1.60;;
52306;SDS011;38249;48.920;12.882;2022-12-29T02:43:44;1.95;;;1.50;;
52306;SDS011;38249;48.920;12.882;2022-12-29T02:46:19;2.30;;;2.00;;
52306;SDS011;38249;48.920;12.882;2022-12-29T02:48:54;2.55;;;1.70;;
52306;SDS011;38249;48.920;12.882;2022-12-29T02:51:27;2.95;;;1.92;;
52306;SDS011;38249;48.920;12.882;2022-12-29T02:53:58;3.20;;;1.70;;
52306;SDS011;38249;48.920;12.882;2022-12-29T02:56:57;1.75;;;1.55;;
52306;SDS011;38249;48.920;12.882;2022-12-29T02:59:23;2.33;;;2.00;;
52306;SDS011;38249;48.920;12.882;2022-12-29T03:02:05;3.25;;;2.03;;
52306;SDS011;38249;48.920;12.882;2022-12-29T03:04:44;2.10;;;1.70;;
52306;SDS011;38249;48.920;12.882;2022-12-29T03:07:22;1.63;;;1.52;;
52306;SDS011;38249;48.920;12.882;2022-12-29T03:09:56;2.10;;;1.70;;
52306;SDS011;38249;48.920;12.882;2022-12-29T03:12:29;1.77;;;1.67;;
52306;SDS011;38249;48.920;12.882;2022-12-29T03:15:16;1.65;;;1.55;;
52306;SDS011;38249;48.920;12.882;2022-12-29T03:18:09;4.43;;;2.40;;
52306;SDS011;38249;48.920;12.882;2022-12-29T03:20:41;3.28;;;1.92;;
52306;SDS011;38249;48.920;12.882;2022-12-29T03:23:15;1.90;;;1.80;;
52306;SDS011;38249;48.920;12.882;2022-12-29T03:25:44;3.05;;;2.20;;
52306;SDS011;38249;48.920;12.882;2022-12-29T03:28:15;3.50;;;1.70;;
52306;SDS011;38249;48.920;12.882;2022-12-29T03:30:47;2.00;;;1.70;;
52306;SDS011;38249;48.920;12.882;2022-12-29T03:33:15;2.30;;;2.10;;
52306;SDS011;38249;48.920;12.882;2022-12-29T03:35:45;4.07;;;1.83;;
52306;SDS011;38249;48.920;12.882;2022-12-29T03:38:15;3.38;;;2.15;;
52306;SDS011;38249;48.920;12.882;2022-12-29T03:40:45;2.17;;;1.80;;
52306;SDS011;38249;48.920;12.882;2022-12-29T03:43:14;1.88;;;1.50;;
52306;SDS011;38249;48.920;12.882;2022-12-29T03:45:41;1.98;;;1.77;;
52306;SDS011;38249;48.920;12.882;2022-12-29T03:48:07;3.00;;;2.03;;
52306;SDS011;38249;48.920;12.882;2022-12-29T03:50:35;2.17;;;1.60;;
52306;SDS011;38249;48.920;12.882;2022-12-29T03:53:02;2.22;;;1.60;;
52306;SDS011;38249;48.920;12.882;2022-12-29T03:55:28;2.17;;;1.98;;
52306;SDS011;38249;48.920;12.882;2022-12-29T03:57:55;1.70;;;1.60;;
52306;SDS011;38249;48.920;12.882;2022-12-29T04:00:22;3.20;;;2.50;;
52306;SDS011;38249;48.920;12.882;2022-12-29T04:02:49;2.80;;;2.45;;
52306;SDS011;38249;48.920;12.882;2022-12-29T04:05:15;1.83;;;1.65;;
52306;SDS011;38249;48.920;12.882;2022-12-29T04:07:43;4.20;;;1.95;;
52306;SDS011;38249;48.920;12.882;2022-12-29T04:10:09;2.13;;;1.90;;
52306;SDS011;38249;48.920;12.882;2022-12-29T04:12:36;4.53;;;2.95;;
52306;SDS011;38249;48.920;12.882;2022-12-29T04:15:03;4.53;;;3.42;;
52306;SDS011;38249;48.920;12.882;2022-12-29T04:17:30;7.40;;;4.63;;
52306;SDS011;38249;48.920;12.882;2022-12-29T04:19:56;2.85;;;2.30;;
52306;SDS011;38249;48.920;12.882;2022-12-29T04:22:44;2.78;;;1.90;;
52306;SDS011;38249;48.920;12.882;2022-12-29T04:25:10;2.13;;;1.90;;
52306;SDS011;38249;48.920;12.882;2022-12-29T04:27:37;2.33;;;1.95;;
52306;SDS011;38249;48.920;12.882;2022-12-29T04:30:04;1.90;;;1.73;;
52306;SDS011;38249;48.920;12.882;2022-12-29T04:32:31;3.22;;;1.95;;
52306;SDS011;38249;48.920;12.882;2022-12-29T04:34:57;4.13;;;3.08;;
52306;SDS011;38249;48.920;12.882;2022-12-29T04:37:24;3.60;;;2.83;;
52306;SDS011;38249;48.920;12.882;2022-12-29T04:39:52;3.50;;;2.75;;
52306;SDS011;38249;48.920;12.882;2022-12-29T04:42:18;3.35;;;2.83;;
52306;SDS011;38249;48.920;12.882;2022-12-29T04:44:45;5.18;;;3.80;;
52306;SDS011;38249;48.920;12.882;2022-12-29T04:47:11;6.30;;;3.63;;
52306;SDS011;38249;48.920;12.882;2022-12-29T04:49:37;2.72;;;2.45;;
52306;SDS011;38249;48.920;12.882;2022-12-29T04:52:04;4.53;;;2.50;;
52306;SDS011;38249;48.920;12.882;2022-12-29T04:54:30;4.32;;;2.08;;
52306;SDS011;38249;48.920;12.882;2022-12-29T04:56:58;3.47;;;1.90;;
52306;SDS011;38249;48.920;12.882;2022-12-29T04:59:25;3.83;;;2.55;;
52306;SDS011;38249;48.920;12.882;2022-12-29T05:01:52;3.40;;;2.00;;
52306;SDS011;38249;48.920;12.882;2022-12-29T05:04:18;1.80;;;1.50;;
52306;SDS011;38249;48.920;12.882;2022-12-29T05:06:45;2.65;;;2.40;;
52306;SDS011;38249;48.920;12.882;2022-12-29T05:09:11;4.80;;;3.28;;
52306;SDS011;38249;48.920;12.882;2022-12-29T05:11:38;5.35;;;2.75;;
52306;SDS011;38249;48.920;12.882;2022-12-29T05:14:05;4.18;;;3.55;;
52306;SDS011;38249;48.920;12.882;2022-12-29T05:16:32;4.43;;;2.70;;
52306;SDS011;38249;48.920;12.882;2022-12-29T05:18:59;4.15;;;2.50;;
52306;SDS011;38249;48.920;12.882;2022-12-29T05:21:25;4.55;;;2.70;;
52306;SDS011;38249;48.920;12.882;2022-12-29T05:23:51;3.70;;;2.92;;
52306;SDS011;38249;48.920;12.882;2022-12-29T05:26:18;3.20;;;2.42;;
52306;SDS011;38249;48.920;12.882;2022-12-29T05:28:44;2.95;;;2.30;;
52306;SDS011;38249;48.920;12.882;2022-12-29T05:31:12;2.83;;;2.20;;
52306;SDS011;38249;48.920;12.882;2022-12-29T05:33:39;2.55;;;2.20;;
52306;SDS011;38249;48.920;12.882;2022-12-29T05:36:06;2.53;;;2.33;;
52306;SDS011;38249;48.920;12.882;2022-12-29T05:38:33;3.53;;;2.22;;
52306;SDS011;38249;48.920;12.882;2022-12-29T05:41:00;3.38;;;2.60;;
52306;SDS011;38249;48.920;12.882;2022-12-29T05:43:27;2.58;;;2.03;;
52306;SDS011;38249;48.920;12.882;2022-12-29T05:45:53;5.07;;;2.30;;
52306;SDS011;38249;48.920;12.882;2022-12-29T05:48:22;3.85;;;2.20;;
52306;SDS011;38249;48.920;12.882;2022-12-29T05:50:48;3.88;;;2.20;;
52306;SDS011;38249;48.920;12.882;2022-12-29T05:53:15;2.30;;;2.00;;
52306;SDS011;38249;48.920;12.882;2022-12-29T05:55:43;2.38;;;1.83;;
52306;SDS011;38249;48.920;12.882;2022-12-29T05:58:09;2.03;;;1.80;;
52306;SDS011;38249;48.920;12.882;2022-12-29T06:00:36;2.55;;;1.92;;
52306;SDS011;38249;48.920;12.882;2022-12-29T06:03:03;2.47;;;1.80;;
52306;SDS011;38249;48.920;12.882;2022-12-29T06:05:30;2.10;;;1.83;;
52306;SDS011;38249;48.920;12.882;2022-12-29T06:07:57;2.45;;;1.80;;
52306;SDS011;38249;48.920;12.882;2022-12-29T06:10:23;5.82;;;2.35;;
52306;SDS011;38249;48.920;12.882;2022-12-29T06:12:50;3.03;;;2.13;;
52306;SDS011;38249;48.920;12.882;2022-12-29T06:15:17;3.28;;;2.30;;
52306;SDS011;38249;48.920;12.882;2022-12-29T06:17:43;4.47;;;2.88;;
52306;SDS011;38249;48.920;12.882;2022-12-29T06:20:11;4.95;;;3.45;;
52306;SDS011;38249;48.920;12.882;2022-12-29T06:22:39;6.28;;;5.15;;
52306;SDS011;38249;48.920;12.882;2022-12-29T06:25:05;9.73;;;6.65;;
52306;SDS011;38249;48.920;12.882;2022-12-29T06:27:32;4.25;;;3.00;;
52306;SDS011;38249;48.920;12.882;2022-12-29T06:29:59;4.40;;;3.00;;
52306;SDS011;38249;48.920;12.882;2022-12-29T06:32:25;3.13;;;2.00;;
52306;SDS011;38249;48.920;12.882;2022-12-29T06:34:52;2.40;;;2.17;;
52306;SDS011;38249;48.920;12.882;2022-12-29T06:37:18;2.22;;;1.80;;
52306;SDS011;38249;48.920;12.882;2022-12-29T06:39:46;2.45;;;2.25;;
52306;SDS011;38249;48.920;12.882;2022-12-29T06:42:12;3.33;;;2.67;;
52306;SDS011;38249;48.920;12.882;2022-12-29T06:44:39;4.60;;;2.55;;
52306;SDS011;38249;48.920;12.882;2022-12-29T06:47:05;2.03;;;1.83;;
52306;SDS011;38249;48.920;12.882;2022-12-29T06:49:32;2.97;;;2.08;;
52306;SDS011;38249;48.920;12.882;2022-12-29T06:51:58;2.55;;;2.05;;
52306;SDS011;38249;48.920;12.882;2022-12-29T06:54:25;2.45;;;2.25;;
52306;SDS011;38249;48.920;12.882;2022-12-29T06:56:53;2.75;;;2.00;;
52306;SDS011;38249;48.920;12.882;2022-12-29T06:59:20;2.17;;;1.80;;
52306;SDS011;38249;48.920;12.882;2022-12-29T07:01:46;1.80;;;1.70;;
52306;SDS011;38249;48.920;12.882;2022-12-29T07:04:13;3.10;;;2.22;;
52306;SDS011;38249;48.920;12.882;2022-12-29T07:06:39;2.40;;;1.60;;
52306;SDS011;38249;48.920;12.882;2022-12-29T07:09:06;2.85;;;2.28;;
52306;SDS011;38249;48.920;12.882;2022-12-29T07:11:33;4.18;;;1.67;;
52306;SDS011;38249;48.920;12.882;2022-12-29T07:14:01;2.30;;;2.10;;
52306;SDS011;38249;48.920;12.882;2022-12-29T07:16:28;2.67;;;1.90;;
52306;SDS011;38249;48.920;12.882;2022-12-29T07:18:55;2.20;;;1.65;;
52306;SDS011;38249;48.920;12.882;2022-12-29T07:21:22;2.50;;;1.63;;
52306;SDS011;38249;48.920;12.882;2022-12-29T07:23:48;2.15;;;1.83;;
52306;SDS011;38249;48.920;12.882;2022-12-29T07:26:15;2.90;;;2.20;;
52306;SDS011;38249;48.920;12.882;2022-12-29T07:28:43;3.10;;;1.90;;
52306;SDS011;38249;48.920;12.882;2022-12-29T07:31:14;1.92;;;1.73;;
52306;SDS011;38249;48.920;12.882;2022-12-29T07:33:41;5.90;;;3.50;;
52306;SDS011;38249;48.920;12.882;2022-12-29T07:36:09;3.80;;;2.30;;
52306;SDS011;38249;48.920;12.882;2022-12-29T07:38:35;5.13;;;2.47;;
52306;SDS011;38249;48.920;12.882;2022-12-29T07:41:02;3.17;;;2.70;;
52306;SDS011;38249;48.920;12.882;2022-12-29T07:43:28;3.42;;;2.17;;
52306;SDS011;38249;48.920;12.882;2022-12-29T07:45:55;2.15;;;1.95;;
52306;SDS011;38249;48.920;12.882;2022-12-29T07:48:23;2.28;;;1.90;;
52306;SDS011;38249;48.920;12.882;2022-12-29T07:50:49;2.70;;;2.30;;
52306;SDS011;38249;48.920;12.882;2022-12-29T07:53:16;2.22;;;2.03;;
52306;SDS011;38249;48.920;12.882;2022-12-29T07:55:43;3.95;;;2.33;;
52306;SDS011;38249;48.920;12.882;2022-12-29T07:58:09;4.20;;;2.45;;
52306;SDS011;38249;48.920;12.882;2022-12-29T08:00:36;4.85;;;2.38;;
52306;SDS011;38249;48.920;12.882;2022-12-29T08:03:03;3.25;;;2.40;;
52306;SDS011;38249;48.920;12.882;2022-12-29T08:05:32;2.63;;;1.98;;
52306;SDS011;38249;48.920;12.882;2022-12-29T08:07:59;3.40;;;2.45;;
52306;SDS011;38249;48.920;12.882;2022-12-29T08:10:26;3.67;;;1.90;;
52306;SDS011;38249;48.920;12.882;2022-12-29T08:12:52;3.30;;;2.55;;
52306;SDS011;38249;48.920;12.882;2022-12-29T08:15:19;4.72;;;3.13;;
52306;SDS011;38249;48.920;12.882;2022-12-29T08:17:45;5.82;;;3.08;;
52306;SDS011;38249;48.920;12.882;2022-12-29T08:20:12;2.13;;;1.88;;
52306;SDS011;38249;48.920;12.882;2022-12-29T08:22:40;3.35;;;2.10;;
52306;SDS011;38249;48.920;12.882;2022-12-29T08:25:06;4.85;;;2.70;;
52306;SDS011;38249;48.920;12.882;2022-12-29T08:27:34;3.15;;;2.30;;
52306;SDS011;38249;48.920;12.882;2022-12-29T08:30:00;4.05;;;2.88;;
52306;SDS011;38249;48.920;12.882;2022-12-29T08:32:27;4.38;;;3.20;;
52306;SDS011;38249;48.920;12.882;2022-12-29T08:34:54;3.70;;;2.55;;
52306;SDS011;38249;48.920;12.882;2022-12-29T08:37:20;2.70;;;2.50;;
52306;SDS011;38249;48.920;12.882;2022-12-29T08:39:49;6.95;;;4.13;;
52306;SDS011;38249;48.920;12.882;2022-12-29T08:42:15;3.80;;;3.05;;
52306;SDS011;38249;48.920;12.882;2022-12-29T08:44:41;8.48;;;6.40;;
52306;SDS011;38249;48.920;12.882;2022-12-29T08:47:08;8.57;;;5.43;;
52306;SDS011;38249;48.920;12.882;2022-12-29T08:49:35;6.15;;;4.50;;
52306;SDS011;38249;48.920;12.882;2022-12-29T08:52:03;6.22;;;3.90;;
52306;SDS011;38249;48.920;12.882;2022-12-29T08:54:30;6.70;;;4.47;;
52306;SDS011;38249;48.920;12.882;2022-12-29T08:56:58;7.03;;;5.20;;
52306;SDS011;38249;48.920;12.882;2022-12-29T08:59:24;10.10;;;5.63;;
52306;SDS011;38249;48.920;12.882;2022-12-29T09:01:51;7.90;;;4.75;;
52306;SDS011;38249;48.920;12.882;2022-12-29T09:04:17;5.57;;;3.97;;
52306;SDS011;38249;48.920;12.882;2022-12-29T09:06:44;7.30;;;4.72;;
52306;SDS011;38249;48.920;12.882;2022-12-29T09:09:11;6.70;;;4.40;;
52306;SDS011;38249;48.920;12.882;2022-12-29T09:11:38;6.53;;;4.88;;
52306;SDS011;38249;48.920;12.882;2022-12-29T09:14:06;5.72;;;3.80;;
52306;SDS011;38249;48.920;12.882;2022-12-29T09:16:33;13.77;;;9.00;;
52306;SDS011;38249;48.920;12.882;2022-12-29T09:19:00;9.02;;;6.32;;
52306;SDS011;38249;48.920;12.882;2022-12-29T09:21:26;8.00;;;5.78;;
52306;SDS011;38249;48.920;12.882;2022-12-29T09:23:53;12.18;;;8.52;;
52306;SDS011;38249;48.920;12.882;2022-12-29T09:26:19;13.25;;;8.95;;
52306;SDS011;38249;48.920;12.882;2022-12-29T09:28:46;11.93;;;8.48;;
52306;SDS011;38249;48.920;12.882;2022-12-29T09:31:14;15.45;;;8.38;;
52306;SDS011;38249;48.920;12.882;2022-12-29T09:33:40;10.82;;;6.38;;
52306;SDS011;38249;48.920;12.882;2022-12-29T09:36:08;11.10;;;6.80;;
52306;SDS011;38249;48.920;12.882;2022-12-29T09:38:34;9.65;;;5.03;;
52306;SDS011;38249;48.920;12.882;2022-12-29T09:41:02;9.90;;;6.18;;
52306;SDS011;38249;48.920;12.882;2022-12-29T09:43:42;6.35;;;4.43;;
52306;SDS011;38249;48.920;12.882;2022-12-29T09:46:23;6.53;;;5.70;;
52306;SDS011;38249;48.920;12.882;2022-12-29T09:48:52;13.88;;;9.75;;
52306;SDS011;38249;48.920;12.882;2022-12-29T09:51:27;10.13;;;7.50;;
52306;SDS011;38249;48.920;12.882;2022-12-29T09:53:55;7.22;;;5.35;;
52306;SDS011;38249;48.920;12.882;2022-12-29T09:56:24;5.07;;;4.18;;
52306;SDS011;38249;48.920;12.882;2022-12-29T09:58:54;4.10;;;3.70;;
52306;SDS011;38249;48.920;12.882;2022-12-29T10:01:28;2.97;;;2.40;;
52306;SDS011;38249;48.920;12.882;2022-12-29T10:03:58;3.65;;;2.60;;
52306;SDS011;38249;48.920;12.882;2022-12-29T10:06:30;4.53;;;4.10;;
52306;SDS011;38249;48.920;12.882;2022-12-29T10:09:06;5.10;;;3.53;;
52306;SDS011;38249;48.920;12.882;2022-12-29T10:11:47;3.45;;;2.83;;
52306;SDS011;38249;48.920;12.882;2022-12-29T10:14:28;6.75;;;5.75;;
52306;SDS011;38249;48.920;12.882;2022-12-29T10:17:13;2.53;;;2.25;;
52306;SDS011;38249;48.920;12.882;2022-12-29T10:19:57;2.80;;;2.28;;
52306;SDS011;38249;48.920;12.882;2022-12-29T10:22:38;3.30;;;1.90;;
52306;SDS011;38249;48.920;12.882;2022-12-29T10:25:18;4.05;;;2.13;;
52306;SDS011;38249;48.920;12.882;2022-12-29T10:27:47;2.78;;;2.47;;
52306;SDS011;38249;48.920;12.882;2022-12-29T10:30:15;3.38;;;2.00;;
52306;SDS011;38249;48.920;12.882;2022-12-29T10:32:44;4.22;;;2.60;;
52306;SDS011;38249;48.920;12.882;2022-12-29T10:35:16;2.65;;;2.20;;
52306;SDS011;38249;48.920;12.882;2022-12-29T10:37:46;3.42;;;2.15;;
52306;SDS011;38249;48.920;12.882;2022-12-29T10:40:19;2.60;;;2.03;;
52306;SDS011;38249;48.920;12.882;2022-12-29T10:42:52;2.67;;;2.08;;
52306;SDS011;38249;48.920;12.882;2022-12-29T10:45:20;3.15;;;2.22;;
52306;SDS011;38249;48.920;12.882;2022-12-29T10:47:53;3.80;;;2.75;;
52306;SDS011;38249;48.920;12.882;2022-12-29T10:50:24;3.03;;;2.25;;
52306;SDS011;38249;48.920;12.882;2022-12-29T10:52:51;2.63;;;2.25;;
52306;SDS011;38249;48.920;12.882;2022-12-29T10:55:21;2.35;;;2.13;;
52306;SDS011;38249;48.920;12.882;2022-12-29T10:57:53;2.80;;;2.17;;
52306;SDS011;38249;48.920;12.882;2022-12-29T11:00:23;4.03;;;2.33;;
52306;SDS011;38249;48.920;12.882;2022-12-29T11:03:04;4.82;;;2.30;;
52306;SDS011;38249;48.920;12.882;2022-12-29T11:05:52;4.20;;;2.58;;
52306;SDS011;38249;48.920;12.882;2022-12-29T11:08:24;4.43;;;3.00;;
52306;SDS011;38249;48.920;12.882;2022-12-29T11:10:57;2.35;;;2.13;;
52306;SDS011;38249;48.920;12.882;2022-12-29T11:13:27;2.58;;;2.17;;
52306;SDS011;38249;48.920;12.882;2022-12-29T11:15:55;4.05;;;2.90;;
52306;SDS011;38249;48.920;12.882;2022-12-29T11:18:23;2.95;;;2.00;;
52306;SDS011;38249;48.920;12.882;2022-12-29T11:20:52;3.03;;;2.45;;
52306;SDS011;38249;48.920;12.882;2022-12-29T11:23:25;2.67;;;2.30;;
52306;SDS011;38249;48.920;12.882;2022-12-29T11:26:05;2.67;;;2.45;;
52306;SDS011;38249;48.920;12.882;2022-12-29T11:28:33;5.80;;;3.72;;
52306;SDS011;38249;48.920;12.882;2022-12-29T11:31:00;4.35;;;1.88;;
52306;SDS011;38249;48.920;12.882;2022-12-29T11:33:29;3.42;;;2.63;;
52306;SDS011;38249;48.920;12.882;2022-12-29T11:35:57;7.50;;;6.40;;
52306;SDS011;38249;48.920;12.882;2022-12-29T11:38:30;3.42;;;1.88;;
52306;SDS011;38249;48.920;12.882;2022-12-29T11:41:02;1.80;;;1.70;;
52306;SDS011;38249;48.920;12.882;2022-12-29T11:43:31;2.22;;;2.03;;
52306;SDS011;38249;48.920;12.882;2022-12-29T11:46:00;2.80;;;2.47;;
52306;SDS011;38249;48.920;12.882;2022-12-29T11:48:31;5.30;;;3.05;;
52306;SDS011;38249;48.920;12.882;2022-12-29T11:51:04;3.50;;;1.88;;
52306;SDS011;38249;48.920;12.882;2022-12-29T11:53:32;2.20;;;1.80;;
52306;SDS011;38249;48.920;12.882;2022-12-29T11:56:06;3.08;;;2.13;;
52306;SDS011;38249;48.920;12.882;2022-12-29T11:58:37;3.75;;;1.73;;
52306;SDS011;38249;48.920;12.882;2022-12-29T12:01:05;2.17;;;1.73;;
52306;SDS011;38249;48.920;12.882;2022-12-29T12:03:37;3.05;;;2.20;;
52306;SDS011;38249;48.920;12.882;2022-12-29T12:06:12;16.58;;;11.55;;
52306;SDS011;38249;48.920;12.882;2022-12-29T12:08:44;7.22;;;5.88;;
52306;SDS011;38249;48.920;12.882;2022-12-29T12:11:15;4.15;;;3.28;;
52306;SDS011;38249;48.920;12.882;2022-12-29T12:13:46;3.63;;;2.55;;
52306;SDS011;38249;48.920;12.882;2022-12-29T12:16:24;7.57;;;5.85;;
52306;SDS011;38249;48.920;12.882;2022-12-29T12:18:57;15.90;;;11.40;;
52306;SDS011;38249;48.920;12.882;2022-12-29T12:21:30;10.10;;;7.95;;
52306;SDS011;38249;48.920;12.882;2022-12-29T12:24:23;9.00;;;4.85;;
52306;SDS011;38249;48.920;12.882;2022-12-29T12:27:09;7.35;;;4.85;;
52306;SDS011;38249;48.920;12.882;2022-12-29T12:29:41;4.90;;;3.65;;
52306;SDS011;38249;48.920;12.882;2022-12-29T12:32:13;8.07;;;6.25;;
52306;SDS011;38249;48.920;12.882;2022-12-29T12:34:45;4.72;;;3.25;;
52306;SDS011;38249;48.920;12.882;2022-12-29T12:37:19;5.10;;;4.10;;
52306;SDS011;38249;48.920;12.882;2022-12-29T12:40:03;4.63;;;3.55;;
52306;SDS011;38249;48.920;12.882;2022-12-29T12:42:52;6.22;;;3.45;;
52306;SDS011;38249;48.920;12.882;2022-12-29T12:45:35;16.70;;;6.22;;
52306;SDS011;38249;48.920;12.882;2022-12-29T12:48:20;5.75;;;3.67;;
52306;SDS011;38249;48.920;12.882;2022-12-29T12:51:01;5.28;;;3.40;;
52306;SDS011;38249;48.920;12.882;2022-12-29T12:53:38;3.90;;;2.65;;
52306;SDS011;38249;48.920;12.882;2022-12-29T12:56:18;4.20;;;2.60;;
52306;SDS011;38249;48.920;12.882;2022-12-29T12:58:59;5.40;;;3.40;;
52306;SDS011;38249;48.920;12.882;2022-12-29T13:01:35;4.82;;;3.00;;
52306;SDS011;38249;48.920;12.882;2022-12-29T13:04:15;5.60;;;2.92;;
52306;SDS011;38249;48.920;12.882;2022-12-29T13:06:58;4.82;;;2.85;;
52306;SDS011;38249;48.920;12.882;2022-12-29T13:09:37;4.22;;;3.17;;
52306;SDS011;38249;48.920;12.882;2022-12-29T13:12:18;4.18;;;2.60;;
52306;SDS011;38249;48.920;12.882;2022-12-29T13:14:57;2.65;;;2.22;;
52306;SDS011;38249;48.920;12.882;2022-12-29T13:17:36;3.63;;;2.50;;
52306;SDS011;38249;48.920;12.882;2022-12-29T13:20:12;3.83;;;2.50;;
52306;SDS011;38249;48.920;12.882;2022-12-29T13:22:48;2.55;;;2.03;;
52306;SDS011;38249;48.920;12.882;2022-12-29T13:25:21;2.97;;;2.40;;
52306;SDS011;38249;48.920;12.882;2022-12-29T13:27:55;3.38;;;2.38;;
52306;SDS011;38249;48.920;12.882;2022-12-29T13:30:30;3.92;;;2.88;;
52306;SDS011;38249;48.920;12.882;2022-12-29T13:33:04;2.83;;;2.15;;
52306;SDS011;38249;48.920;12.882;2022-12-29T13:35:41;3.92;;;2.45;;
52306;SDS011;38249;48.920;12.882;2022-12-29T13:38:20;2.92;;;2.50;;
52306;SDS011;38249;48.920;12.882;2022-12-29T13:40:50;3.83;;;2.90;;
52306;SDS011;38249;48.920;12.882;2022-12-29T13:43:20;3.97;;;2.67;;
52306;SDS011;38249;48.920;12.882;2022-12-29T13:45:49;3.85;;;2.45;;
52306;SDS011;38249;48.920;12.882;2022-12-29T13:48:25;2.78;;;2.13;;
52306;SDS011;38249;48.920;12.882;2022-12-29T13:51:02;3.28;;;2.63;;
52306;SDS011;38249;48.920;12.882;2022-12-29T13:53:33;3.92;;;2.47;;
52306;SDS011;38249;48.920;12.882;2022-12-29T13:56:06;3.88;;;2.63;;
52306;SDS011;38249;48.920;12.882;2022-12-29T13:58:39;4.85;;;3.78;;
52306;SDS011;38249;48.920;12.882;2022-12-29T14:01:10;14.63;;;11.65;;
52306;SDS011;38249;48.920;12.882;2022-12-29T14:03:46;5.53;;;2.92;;
52306;SDS011;38249;48.920;12.882;2022-12-29T14:06:16;4.07;;;3.15;;
52306;SDS011;38249;48.920;12.882;2022-12-29T14:08:49;7.72;;;6.13;;
52306;SDS011;38249;48.920;12.882;2022-12-29T14:11:18;4.15;;;3.60;;
52306;SDS011;38249;48.920;12.882;2022-12-29T14:13:49;9.95;;;7.43;;
52306;SDS011;38249;48.920;12.882;2022-12-29T14:16:25;5.13;;;3.80;;
52306;SDS011;38249;48.920;12.882;2022-12-29T14:18:54;3.80;;;2.72;;
52306;SDS011;38249;48.920;12.882;2022-12-29T14:21:23;7.15;;;5.35;;
52306;SDS011;38249;48.920;12.882;2022-12-29T14:24:00;3.90;;;3.30;;
52306;SDS011;38249;48.920;12.882;2022-12-29T14:26:57;9.38;;;5.80;;
52306;SDS011;38249;48.920;12.882;2022-12-29T14:38:18;13.48;;;7.97;;
52306;SDS011;38249;48.920;12.882;2022-12-29T14:40:48;22.13;;;14.15;;
52306;SDS011;38249;48.920;12.882;2022-12-29T14:46:00;15.23;;;9.80;;
52306;SDS011;38249;48.920;12.882;2022-12-29T14:48:38;8.63;;;5.72;;
52306;SDS011;38249;48.920;12.882;2022-12-29T14:51:21;6.63;;;3.70;;
52306;SDS011;38249;48.920;12.882;2022-12-29T14:53:56;5.97;;;3.53;;
52306;SDS011;38249;48.920;12.882;2022-12-29T14:56:26;4.13;;;3.28;;
52306;SDS011;38249;48.920;12.882;2022-12-29T14:58:56;2.42;;;2.22;;
52306;SDS011;38249;48.920;12.882;2022-12-29T15:01:27;4.10;;;2.17;;
52306;SDS011;38249;48.920;12.882;2022-12-29T15:04:16;3.05;;;2.22;;
52306;SDS011;38249;48.920;12.882;2022-12-29T15:06:45;6.93;;;3.40;;
52306;SDS011;38249;48.920;12.882;2022-12-29T15:09:15;7.10;;;4.43;;
52306;SDS011;38249;48.920;12.882;2022-12-29T15:11:52;7.22;;;4.75;;
52306;SDS011;38249;48.920;12.882;2022-12-29T15:14:26;6.90;;;4.28;;
52306;SDS011;38249;48.920;12.882;2022-12-29T15:16:55;6.07;;;4.50;;